sensor_id;sensor_type;location;lat;lon;timestamp;P1;durP1;ratioP1;P2;durP2;ratioP2
22646;SDS011;11490;42.726;23.268;2023-09-30T00:02:06;8.85;;;5.07;;
22646;SDS011;11490;42.726;23.268;2023-09-30T00:04:31;14.75;;;5.65;;
22646;SDS011;11490;42.726;23.268;2023-09-30T00:06:57;11.23;;;4.95;;
22646;SDS011;11490;42.726;23.268;2023-09-30T00:09:22;12.02;;;6.00;;
22646;SDS011;11490;42.726;23.268;2023-09-30T00:11:48;12.02;;;5.38;;
22646;SDS011;11490;42.726;23.268;2023-09-30T00:14:13;10.55;;;4.90;;
22646;SDS011;11490;42.726;23.268;2023-09-30T00:16:39;9.85;;;5.38;;
22646;SDS011;11490;42.726;23.268;2023-09-30T00:19:05;8.73;;;5.75;;
22646;SDS011;11490;42.726;23.268;2023-09-30T00:21:31;22.13;;;5.05;;
22646;SDS011;11490;42.726;23.268;2023-09-30T00:23:59;9.80;;;5.50;;
22646;SDS011;11490;42.726;23.268;2023-09-30T00:26:24;8.40;;;5.30;;
22646;SDS011;11490;42.726;23.268;2023-09-30T00:28:50;7.95;;;5.03;;
22646;SDS011;11490;42.726;23.268;2023-09-30T00:31:15;8.45;;;5.40;;
22646;SDS011;11490;42.726;23.268;2023-09-30T00:33:40;8.82;;;5.22;;
22646;SDS011;11490;42.726;23.268;2023-09-30T00:36:09;8.43;;;5.32;;
22646;SDS011;11490;42.726;23.268;2023-09-30T00:38:39;10.65;;;5.22;;
22646;SDS011;11490;42.726;23.268;2023-09-30T00:41:05;6.45;;;4.68;;
22646;SDS011;11490;42.726;23.268;2023-09-30T00:43:32;16.00;;;5.35;;
22646;SDS011;11490;42.726;23.268;2023-09-30T00:46:02;9.65;;;5.03;;
22646;SDS011;11490;42.726;23.268;2023-09-30T00:48:34;7.43;;;5.47;;
22646;SDS011;11490;42.726;23.268;2023-09-30T00:51:00;8.30;;;5.32;;
22646;SDS011;11490;42.726;23.268;2023-09-30T00:53:27;15.88;;;5.85;;
22646;SDS011;11490;42.726;23.268;2023-09-30T00:55:53;6.85;;;5.05;;
22646;SDS011;11490;42.726;23.268;2023-09-30T00:58:21;7.45;;;5.38;;
22646;SDS011;11490;42.726;23.268;2023-09-30T01:00:50;9.27;;;5.70;;
22646;SDS011;11490;42.726;23.268;2023-09-30T01:03:16;5.72;;;4.53;;
22646;SDS011;11490;42.726;23.268;2023-09-30T01:05:42;8.80;;;5.35;;
22646;SDS011;11490;42.726;23.268;2023-09-30T01:08:07;13.52;;;5.90;;
22646;SDS011;11490;42.726;23.268;2023-09-30T01:10:33;7.47;;;5.15;;
22646;SDS011;11490;42.726;23.268;2023-09-30T01:12:59;9.90;;;4.97;;
22646;SDS011;11490;42.726;23.268;2023-09-30T01:15:24;8.55;;;5.10;;
22646;SDS011;11490;42.726;23.268;2023-09-30T01:17:49;7.45;;;5.05;;
22646;SDS011;11490;42.726;23.268;2023-09-30T01:20:15;8.90;;;4.95;;
22646;SDS011;11490;42.726;23.268;2023-09-30T01:22:46;7.53;;;5.00;;
22646;SDS011;11490;42.726;23.268;2023-09-30T01:25:11;10.23;;;4.82;;
22646;SDS011;11490;42.726;23.268;2023-09-30T01:27:37;7.28;;;4.80;;
22646;SDS011;11490;42.726;23.268;2023-09-30T01:30:02;11.57;;;5.22;;
22646;SDS011;11490;42.726;23.268;2023-09-30T01:32:28;10.65;;;5.07;;
22646;SDS011;11490;42.726;23.268;2023-09-30T01:34:53;7.35;;;4.85;;
22646;SDS011;11490;42.726;23.268;2023-09-30T01:37:19;9.30;;;5.72;;
22646;SDS011;11490;42.726;23.268;2023-09-30T01:39:44;8.18;;;5.28;;
22646;SDS011;11490;42.726;23.268;2023-09-30T01:42:10;7.07;;;5.00;;
22646;SDS011;11490;42.726;23.268;2023-09-30T01:44:36;12.95;;;5.95;;
22646;SDS011;11490;42.726;23.268;2023-09-30T01:47:01;14.77;;;6.10;;
22646;SDS011;11490;42.726;23.268;2023-09-30T01:49:27;10.65;;;7.07;;
22646;SDS011;11490;42.726;23.268;2023-09-30T01:51:52;10.43;;;7.03;;
22646;SDS011;11490;42.726;23.268;2023-09-30T01:54:18;11.45;;;6.28;;
22646;SDS011;11490;42.726;23.268;2023-09-30T01:56:43;9.20;;;6.00;;
22646;SDS011;11490;42.726;23.268;2023-09-30T01:59:09;12.10;;;6.93;;
22646;SDS011;11490;42.726;23.268;2023-09-30T02:01:34;10.68;;;7.57;;
22646;SDS011;11490;42.726;23.268;2023-09-30T02:04:00;10.13;;;6.63;;
22646;SDS011;11490;42.726;23.268;2023-09-30T02:06:25;12.10;;;6.45;;
22646;SDS011;11490;42.726;23.268;2023-09-30T02:08:51;11.27;;;6.35;;
22646;SDS011;11490;42.726;23.268;2023-09-30T02:11:16;13.60;;;6.82;;
22646;SDS011;11490;42.726;23.268;2023-09-30T02:13:42;10.02;;;6.38;;
22646;SDS011;11490;42.726;23.268;2023-09-30T02:16:13;9.40;;;6.40;;
22646;SDS011;11490;42.726;23.268;2023-09-30T02:18:39;11.32;;;6.57;;
22646;SDS011;11490;42.726;23.268;2023-09-30T02:21:07;14.48;;;7.03;;
22646;SDS011;11490;42.726;23.268;2023-09-30T02:23:34;11.50;;;7.20;;
22646;SDS011;11490;42.726;23.268;2023-09-30T02:26:00;8.50;;;5.95;;
22646;SDS011;11490;42.726;23.268;2023-09-30T02:28:26;10.27;;;6.95;;
22646;SDS011;11490;42.726;23.268;2023-09-30T02:30:51;18.35;;;7.43;;
22646;SDS011;11490;42.726;23.268;2023-09-30T02:33:19;11.32;;;6.57;;
22646;SDS011;11490;42.726;23.268;2023-09-30T02:35:44;10.15;;;6.75;;
22646;SDS011;11490;42.726;23.268;2023-09-30T02:38:15;14.77;;;8.18;;
22646;SDS011;11490;42.726;23.268;2023-09-30T02:40:41;12.15;;;6.88;;
22646;SDS011;11490;42.726;23.268;2023-09-30T02:43:10;15.75;;;7.95;;
22646;SDS011;11490;42.726;23.268;2023-09-30T02:45:35;13.40;;;7.57;;
22646;SDS011;11490;42.726;23.268;2023-09-30T02:48:01;15.05;;;7.57;;
22646;SDS011;11490;42.726;23.268;2023-09-30T02:50:26;11.80;;;7.85;;
22646;SDS011;11490;42.726;23.268;2023-09-30T02:52:51;10.45;;;7.00;;
22646;SDS011;11490;42.726;23.268;2023-09-30T02:55:17;12.40;;;7.10;;
22646;SDS011;11490;42.726;23.268;2023-09-30T02:57:42;18.02;;;7.32;;
22646;SDS011;11490;42.726;23.268;2023-09-30T03:00:08;24.10;;;8.95;;
22646;SDS011;11490;42.726;23.268;2023-09-30T03:02:57;14.13;;;7.80;;
22646;SDS011;11490;42.726;23.268;2023-09-30T03:05:22;14.48;;;7.85;;
22646;SDS011;11490;42.726;23.268;2023-09-30T03:07:53;15.73;;;7.40;;
22646;SDS011;11490;42.726;23.268;2023-09-30T03:10:19;13.40;;;8.10;;
22646;SDS011;11490;42.726;23.268;2023-09-30T03:12:48;11.05;;;7.45;;
22646;SDS011;11490;42.726;23.268;2023-09-30T03:15:15;15.18;;;7.30;;
22646;SDS011;11490;42.726;23.268;2023-09-30T03:17:41;12.45;;;7.13;;
22646;SDS011;11490;42.726;23.268;2023-09-30T03:20:07;18.75;;;7.63;;
22646;SDS011;11490;42.726;23.268;2023-09-30T03:22:36;13.13;;;7.50;;
22646;SDS011;11490;42.726;23.268;2023-09-30T03:25:03;21.08;;;8.63;;
22646;SDS011;11490;42.726;23.268;2023-09-30T03:27:32;13.25;;;6.88;;
22646;SDS011;11490;42.726;23.268;2023-09-30T03:29:58;15.05;;;7.03;;
22646;SDS011;11490;42.726;23.268;2023-09-30T03:32:25;18.00;;;7.00;;
22646;SDS011;11490;42.726;23.268;2023-09-30T03:34:52;10.57;;;6.70;;
22646;SDS011;11490;42.726;23.268;2023-09-30T03:37:17;9.10;;;5.88;;
22646;SDS011;11490;42.726;23.268;2023-09-30T03:39:43;13.30;;;6.03;;
22646;SDS011;11490;42.726;23.268;2023-09-30T03:42:08;15.82;;;7.10;;
22646;SDS011;11490;42.726;23.268;2023-09-30T03:44:36;11.50;;;6.25;;
22646;SDS011;11490;42.726;23.268;2023-09-30T03:47:02;10.55;;;6.15;;
22646;SDS011;11490;42.726;23.268;2023-09-30T03:49:28;8.65;;;6.07;;
22646;SDS011;11490;42.726;23.268;2023-09-30T03:51:54;12.48;;;5.88;;
22646;SDS011;11490;42.726;23.268;2023-09-30T03:54:19;12.20;;;5.80;;
22646;SDS011;11490;42.726;23.268;2023-09-30T03:56:45;15.05;;;6.70;;
22646;SDS011;11490;42.726;23.268;2023-09-30T03:59:14;9.30;;;6.35;;
22646;SDS011;11490;42.726;23.268;2023-09-30T04:01:39;8.57;;;6.10;;
22646;SDS011;11490;42.726;23.268;2023-09-30T04:04:05;9.65;;;5.25;;
22646;SDS011;11490;42.726;23.268;2023-09-30T04:06:32;12.15;;;5.93;;
22646;SDS011;11490;42.726;23.268;2023-09-30T04:08:57;10.73;;;5.93;;
22646;SDS011;11490;42.726;23.268;2023-09-30T04:11:24;9.80;;;6.25;;
22646;SDS011;11490;42.726;23.268;2023-09-30T04:13:49;9.60;;;5.72;;
22646;SDS011;11490;42.726;23.268;2023-09-30T04:16:15;13.15;;;7.93;;
22646;SDS011;11490;42.726;23.268;2023-09-30T04:18:43;8.80;;;6.00;;
22646;SDS011;11490;42.726;23.268;2023-09-30T04:21:09;8.38;;;5.75;;
22646;SDS011;11490;42.726;23.268;2023-09-30T04:23:34;21.67;;;6.90;;
22646;SDS011;11490;42.726;23.268;2023-09-30T04:26:03;11.68;;;6.97;;
22646;SDS011;11490;42.726;23.268;2023-09-30T04:28:29;11.98;;;7.22;;
22646;SDS011;11490;42.726;23.268;2023-09-30T04:30:55;16.90;;;7.63;;
22646;SDS011;11490;42.726;23.268;2023-09-30T04:33:21;13.90;;;7.57;;
22646;SDS011;11490;42.726;23.268;2023-09-30T04:35:49;12.20;;;7.10;;
22646;SDS011;11490;42.726;23.268;2023-09-30T04:38:15;12.85;;;6.88;;
22646;SDS011;11490;42.726;23.268;2023-09-30T04:40:40;15.02;;;6.45;;
22646;SDS011;11490;42.726;23.268;2023-09-30T04:43:09;9.07;;;5.50;;
22646;SDS011;11490;42.726;23.268;2023-09-30T04:45:34;11.27;;;5.97;;
22646;SDS011;11490;42.726;23.268;2023-09-30T04:48:03;10.50;;;6.80;;
22646;SDS011;11490;42.726;23.268;2023-09-30T04:50:29;10.20;;;6.07;;
22646;SDS011;11490;42.726;23.268;2023-09-30T04:52:55;20.98;;;6.47;;
22646;SDS011;11490;42.726;23.268;2023-09-30T04:55:21;13.02;;;6.45;;
22646;SDS011;11490;42.726;23.268;2023-09-30T04:57:47;12.63;;;5.45;;
22646;SDS011;11490;42.726;23.268;2023-09-30T05:00:13;13.38;;;5.90;;
22646;SDS011;11490;42.726;23.268;2023-09-30T05:02:40;10.88;;;5.28;;
22646;SDS011;11490;42.726;23.268;2023-09-30T05:05:05;13.05;;;5.63;;
22646;SDS011;11490;42.726;23.268;2023-09-30T05:07:32;8.02;;;5.30;;
22646;SDS011;11490;42.726;23.268;2023-09-30T05:09:58;14.48;;;6.38;;
22646;SDS011;11490;42.726;23.268;2023-09-30T05:12:24;10.38;;;5.78;;
22646;SDS011;11490;42.726;23.268;2023-09-30T05:14:50;10.70;;;5.80;;
22646;SDS011;11490;42.726;23.268;2023-09-30T05:17:22;11.32;;;6.28;;
22646;SDS011;11490;42.726;23.268;2023-09-30T05:19:47;12.00;;;5.88;;
22646;SDS011;11490;42.726;23.268;2023-09-30T05:22:13;21.92;;;5.72;;
22646;SDS011;11490;42.726;23.268;2023-09-30T05:24:38;12.13;;;6.25;;
22646;SDS011;11490;42.726;23.268;2023-09-30T05:27:04;10.27;;;5.97;;
22646;SDS011;11490;42.726;23.268;2023-09-30T05:29:29;22.17;;;7.10;;
22646;SDS011;11490;42.726;23.268;2023-09-30T05:31:58;14.07;;;6.10;;
22646;SDS011;11490;42.726;23.268;2023-09-30T05:34:23;7.80;;;5.97;;
22646;SDS011;11490;42.726;23.268;2023-09-30T05:36:49;15.63;;;7.22;;
22646;SDS011;11490;42.726;23.268;2023-09-30T05:39:16;10.70;;;7.10;;
22646;SDS011;11490;42.726;23.268;2023-09-30T05:41:45;14.35;;;8.30;;
22646;SDS011;11490;42.726;23.268;2023-09-30T05:44:11;11.20;;;6.40;;
22646;SDS011;11490;42.726;23.268;2023-09-30T05:46:39;19.20;;;7.70;;
22646;SDS011;11490;42.726;23.268;2023-09-30T05:49:05;18.52;;;8.05;;
22646;SDS011;11490;42.726;23.268;2023-09-30T05:51:36;13.02;;;8.77;;
22646;SDS011;11490;42.726;23.268;2023-09-30T05:54:01;12.25;;;8.18;;
22646;SDS011;11490;42.726;23.268;2023-09-30T05:56:27;12.98;;;8.88;;
22646;SDS011;11490;42.726;23.268;2023-09-30T05:58:52;15.10;;;7.00;;
22646;SDS011;11490;42.726;23.268;2023-09-30T06:01:18;12.32;;;7.43;;
22646;SDS011;11490;42.726;23.268;2023-09-30T06:03:44;9.35;;;5.65;;
22646;SDS011;11490;42.726;23.268;2023-09-30T06:06:15;9.43;;;5.85;;
22646;SDS011;11490;42.726;23.268;2023-09-30T06:08:41;8.35;;;5.55;;
22646;SDS011;11490;42.726;23.268;2023-09-30T06:11:19;8.45;;;5.00;;
22646;SDS011;11490;42.726;23.268;2023-09-30T06:13:49;8.80;;;5.30;;
22646;SDS011;11490;42.726;23.268;2023-09-30T06:16:20;7.18;;;4.80;;
22646;SDS011;11490;42.726;23.268;2023-09-30T06:18:46;7.18;;;3.88;;
22646;SDS011;11490;42.726;23.268;2023-09-30T06:21:12;6.85;;;4.20;;
22646;SDS011;11490;42.726;23.268;2023-09-30T06:23:39;8.82;;;4.88;;
22646;SDS011;11490;42.726;23.268;2023-09-30T06:26:05;8.38;;;5.00;;
22646;SDS011;11490;42.726;23.268;2023-09-30T06:28:30;6.80;;;4.65;;
22646;SDS011;11490;42.726;23.268;2023-09-30T06:30:57;8.70;;;4.65;;
22646;SDS011;11490;42.726;23.268;2023-09-30T06:33:22;6.85;;;5.10;;
22646;SDS011;11490;42.726;23.268;2023-09-30T06:35:48;6.78;;;4.78;;
22646;SDS011;11490;42.726;23.268;2023-09-30T06:38:20;8.50;;;5.18;;
22646;SDS011;11490;42.726;23.268;2023-09-30T06:40:46;5.70;;;4.47;;
22646;SDS011;11490;42.726;23.268;2023-09-30T06:43:15;9.15;;;5.32;;
22646;SDS011;11490;42.726;23.268;2023-09-30T06:45:41;15.43;;;7.32;;
22646;SDS011;11490;42.726;23.268;2023-09-30T06:48:09;18.20;;;7.53;;
22646;SDS011;11490;42.726;23.268;2023-09-30T06:50:49;8.25;;;5.47;;
22646;SDS011;11490;42.726;23.268;2023-09-30T06:53:36;9.80;;;5.60;;
22646;SDS011;11490;42.726;23.268;2023-09-30T06:59:03;6.70;;;4.18;;
22646;SDS011;11490;42.726;23.268;2023-09-30T07:01:38;9.27;;;4.63;;
22646;SDS011;11490;42.726;23.268;2023-09-30T07:04:24;6.45;;;4.20;;
22646;SDS011;11490;42.726;23.268;2023-09-30T07:07:02;7.38;;;4.57;;
22646;SDS011;11490;42.726;23.268;2023-09-30T07:12:54;12.45;;;5.00;;
22646;SDS011;11490;42.726;23.268;2023-09-30T07:15:20;9.68;;;4.38;;
22646;SDS011;11490;42.726;23.268;2023-09-30T07:17:52;9.98;;;4.72;;
22646;SDS011;11490;42.726;23.268;2023-09-30T07:20:39;7.45;;;4.40;;
22646;SDS011;11490;42.726;23.268;2023-09-30T07:23:04;8.38;;;4.68;;
22646;SDS011;11490;42.726;23.268;2023-09-30T07:25:30;6.50;;;4.28;;
22646;SDS011;11490;42.726;23.268;2023-09-30T07:27:59;9.60;;;4.22;;
22646;SDS011;11490;42.726;23.268;2023-09-30T07:30:26;12.57;;;5.10;;
22646;SDS011;11490;42.726;23.268;2023-09-30T07:32:51;15.75;;;8.43;;
22646;SDS011;11490;42.726;23.268;2023-09-30T07:35:43;7.45;;;4.57;;
22646;SDS011;11490;42.726;23.268;2023-09-30T07:38:12;14.35;;;4.68;;
22646;SDS011;11490;42.726;23.268;2023-09-30T07:40:38;8.35;;;4.95;;
22646;SDS011;11490;42.726;23.268;2023-09-30T07:43:26;6.15;;;3.60;;
22646;SDS011;11490;42.726;23.268;2023-09-30T07:45:53;11.57;;;4.07;;
22646;SDS011;11490;42.726;23.268;2023-09-30T07:51:32;8.68;;;4.15;;
22646;SDS011;11490;42.726;23.268;2023-09-30T07:53:57;7.55;;;4.18;;
22646;SDS011;11490;42.726;23.268;2023-09-30T07:56:25;7.85;;;4.25;;
22646;SDS011;11490;42.726;23.268;2023-09-30T07:58:59;9.23;;;3.33;;
22646;SDS011;11490;42.726;23.268;2023-09-30T08:01:47;6.00;;;3.83;;
22646;SDS011;11490;42.726;23.268;2023-09-30T08:04:24;8.07;;;3.70;;
22646;SDS011;11490;42.726;23.268;2023-09-30T08:06:58;7.13;;;2.92;;
22646;SDS011;11490;42.726;23.268;2023-09-30T08:09:26;6.97;;;3.35;;
22646;SDS011;11490;42.726;23.268;2023-09-30T08:11:54;5.05;;;2.80;;
22646;SDS011;11490;42.726;23.268;2023-09-30T08:14:21;6.18;;;3.05;;
22646;SDS011;11490;42.726;23.268;2023-09-30T08:16:49;4.07;;;3.22;;
22646;SDS011;11490;42.726;23.268;2023-09-30T08:19:17;6.38;;;2.95;;
22646;SDS011;11490;42.726;23.268;2023-09-30T08:21:51;25.58;;;4.35;;
22646;SDS011;11490;42.726;23.268;2023-09-30T08:24:19;5.30;;;3.10;;
22646;SDS011;11490;42.726;23.268;2023-09-30T08:26:44;3.90;;;2.50;;
22646;SDS011;11490;42.726;23.268;2023-09-30T08:29:10;8.55;;;3.05;;
22646;SDS011;11490;42.726;23.268;2023-09-30T08:31:35;5.28;;;3.78;;
22646;SDS011;11490;42.726;23.268;2023-09-30T08:34:01;5.97;;;3.08;;
22646;SDS011;11490;42.726;23.268;2023-09-30T08:36:29;12.15;;;4.13;;
22646;SDS011;11490;42.726;23.268;2023-09-30T08:38:55;8.95;;;4.32;;
22646;SDS011;11490;42.726;23.268;2023-09-30T08:41:53;6.97;;;4.10;;
22646;SDS011;11490;42.726;23.268;2023-09-30T08:44:12;12.40;;;4.47;;
22646;SDS011;11490;42.726;23.268;2023-09-30T08:46:38;10.70;;;4.85;;
22646;SDS011;11490;42.726;23.268;2023-09-30T08:49:04;7.45;;;3.60;;
22646;SDS011;11490;42.726;23.268;2023-09-30T08:51:33;7.00;;;3.60;;
22646;SDS011;11490;42.726;23.268;2023-09-30T08:54:01;7.38;;;4.63;;
22646;SDS011;11490;42.726;23.268;2023-09-30T08:56:29;9.30;;;4.65;;
22646;SDS011;11490;42.726;23.268;2023-09-30T08:58:58;6.47;;;4.25;;
22646;SDS011;11490;42.726;23.268;2023-09-30T09:01:26;12.45;;;4.25;;
22646;SDS011;11490;42.726;23.268;2023-09-30T09:03:53;8.45;;;4.85;;
22646;SDS011;11490;42.726;23.268;2023-09-30T09:06:22;8.15;;;4.70;;
22646;SDS011;11490;42.726;23.268;2023-09-30T09:08:49;8.30;;;4.55;;
22646;SDS011;11490;42.726;23.268;2023-09-30T09:11:15;6.97;;;4.45;;
22646;SDS011;11490;42.726;23.268;2023-09-30T09:13:47;6.18;;;3.92;;
22646;SDS011;11490;42.726;23.268;2023-09-30T09:16:20;17.33;;;4.47;;
22646;SDS011;11490;42.726;23.268;2023-09-30T09:18:47;6.88;;;4.78;;
22646;SDS011;11490;42.726;23.268;2023-09-30T09:21:17;13.93;;;4.22;;
22646;SDS011;11490;42.726;23.268;2023-09-30T09:23:46;5.90;;;3.40;;
22646;SDS011;11490;42.726;23.268;2023-09-30T09:28:50;7.07;;;4.50;;
22646;SDS011;11490;42.726;23.268;2023-09-30T09:31:21;6.88;;;4.32;;
22646;SDS011;11490;42.726;23.268;2023-09-30T09:33:49;4.70;;;3.38;;
22646;SDS011;11490;42.726;23.268;2023-09-30T09:36:15;4.38;;;3.15;;
22646;SDS011;11490;42.726;23.268;2023-09-30T09:38:44;6.85;;;3.20;;
22646;SDS011;11490;42.726;23.268;2023-09-30T09:41:10;5.28;;;3.67;;
22646;SDS011;11490;42.726;23.268;2023-09-30T09:43:36;5.80;;;3.35;;
22646;SDS011;11490;42.726;23.268;2023-09-30T09:46:03;4.95;;;3.20;;
22646;SDS011;11490;42.726;23.268;2023-09-30T09:48:36;6.68;;;3.38;;
22646;SDS011;11490;42.726;23.268;2023-09-30T09:51:02;7.18;;;3.65;;
22646;SDS011;11490;42.726;23.268;2023-09-30T09:53:30;5.88;;;3.63;;
22646;SDS011;11490;42.726;23.268;2023-09-30T09:55:59;5.53;;;3.33;;
22646;SDS011;11490;42.726;23.268;2023-09-30T09:58:24;6.97;;;4.00;;
22646;SDS011;11490;42.726;23.268;2023-09-30T10:00:52;4.90;;;3.20;;
22646;SDS011;11490;42.726;23.268;2023-09-30T10:03:18;5.28;;;2.90;;
22646;SDS011;11490;42.726;23.268;2023-09-30T10:05:43;3.83;;;2.67;;
22646;SDS011;11490;42.726;23.268;2023-09-30T10:08:14;7.43;;;3.47;;
22646;SDS011;11490;42.726;23.268;2023-09-30T10:10:43;6.20;;;3.22;;
22646;SDS011;11490;42.726;23.268;2023-09-30T10:13:10;7.25;;;3.00;;
22646;SDS011;11490;42.726;23.268;2023-09-30T10:19:19;3.60;;;2.33;;
22646;SDS011;11490;42.726;23.268;2023-09-30T10:24:49;10.88;;;3.70;;
22646;SDS011;11490;42.726;23.268;2023-09-30T10:29:46;7.35;;;2.35;;
22646;SDS011;11490;42.726;23.268;2023-09-30T10:32:12;4.00;;;2.42;;
22646;SDS011;11490;42.726;23.268;2023-09-30T10:34:39;7.95;;;2.53;;
22646;SDS011;11490;42.726;23.268;2023-09-30T10:37:22;4.32;;;2.47;;
22646;SDS011;11490;42.726;23.268;2023-09-30T10:39:53;7.20;;;3.20;;
22646;SDS011;11490;42.726;23.268;2023-09-30T10:48:32;4.85;;;2.50;;
22646;SDS011;11490;42.726;23.268;2023-09-30T10:51:00;5.13;;;2.90;;
22646;SDS011;11490;42.726;23.268;2023-09-30T10:53:49;5.07;;;3.38;;
22646;SDS011;11490;42.726;23.268;2023-09-30T10:56:17;6.72;;;2.60;;
22646;SDS011;11490;42.726;23.268;2023-09-30T10:58:44;5.53;;;3.47;;
22646;SDS011;11490;42.726;23.268;2023-09-30T11:01:20;7.85;;;2.92;;
22646;SDS011;11490;42.726;23.268;2023-09-30T11:03:49;6.95;;;3.10;;
22646;SDS011;11490;42.726;23.268;2023-09-30T11:06:17;5.93;;;2.65;;
22646;SDS011;11490;42.726;23.268;2023-09-30T11:08:45;5.57;;;3.13;;
22646;SDS011;11490;42.726;23.268;2023-09-30T11:11:15;5.10;;;2.65;;
22646;SDS011;11490;42.726;23.268;2023-09-30T11:13:41;5.75;;;3.03;;
22646;SDS011;11490;42.726;23.268;2023-09-30T11:16:07;4.10;;;2.72;;
22646;SDS011;11490;42.726;23.268;2023-09-30T11:18:35;9.25;;;3.03;;
22646;SDS011;11490;42.726;23.268;2023-09-30T11:21:10;4.15;;;2.90;;
22646;SDS011;11490;42.726;23.268;2023-09-30T11:23:37;4.18;;;2.65;;
22646;SDS011;11490;42.726;23.268;2023-09-30T11:26:04;5.25;;;2.58;;
22646;SDS011;11490;42.726;23.268;2023-09-30T11:28:40;6.22;;;2.90;;
22646;SDS011;11490;42.726;23.268;2023-09-30T11:31:07;4.63;;;2.20;;
22646;SDS011;11490;42.726;23.268;2023-09-30T11:33:56;4.38;;;2.30;;
22646;SDS011;11490;42.726;23.268;2023-09-30T11:36:23;6.00;;;3.65;;
22646;SDS011;11490;42.726;23.268;2023-09-30T11:38:49;8.48;;;3.17;;
22646;SDS011;11490;42.726;23.268;2023-09-30T11:41:17;4.43;;;2.75;;
22646;SDS011;11490;42.726;23.268;2023-09-30T11:46:57;8.95;;;3.28;;
22646;SDS011;11490;42.726;23.268;2023-09-30T11:49:36;7.22;;;2.88;;
22646;SDS011;11490;42.726;23.268;2023-09-30T11:52:26;7.20;;;3.53;;
22646;SDS011;11490;42.726;23.268;2023-09-30T11:54:52;4.18;;;2.65;;
22646;SDS011;11490;42.726;23.268;2023-09-30T11:57:18;7.78;;;2.95;;
22646;SDS011;11490;42.726;23.268;2023-09-30T11:59:44;8.25;;;3.80;;
22646;SDS011;11490;42.726;23.268;2023-09-30T12:02:14;4.60;;;2.70;;
22646;SDS011;11490;42.726;23.268;2023-09-30T12:04:42;4.70;;;2.78;;
22646;SDS011;11490;42.726;23.268;2023-09-30T12:07:09;5.55;;;2.72;;
22646;SDS011;11490;42.726;23.268;2023-09-30T12:09:34;4.20;;;2.90;;
22646;SDS011;11490;42.726;23.268;2023-09-30T12:12:02;7.35;;;2.75;;
22646;SDS011;11490;42.726;23.268;2023-09-30T12:14:28;5.28;;;3.05;;
22646;SDS011;11490;42.726;23.268;2023-09-30T12:16:55;6.53;;;3.25;;
22646;SDS011;11490;42.726;23.268;2023-09-30T12:19:21;9.88;;;2.53;;
22646;SDS011;11490;42.726;23.268;2023-09-30T12:21:46;4.75;;;2.35;;
22646;SDS011;11490;42.726;23.268;2023-09-30T12:24:13;7.07;;;2.83;;
22646;SDS011;11490;42.726;23.268;2023-09-30T12:26:44;6.43;;;2.67;;
22646;SDS011;11490;42.726;23.268;2023-09-30T12:29:22;5.05;;;2.42;;
22646;SDS011;11490;42.726;23.268;2023-09-30T12:31:49;4.90;;;2.90;;
22646;SDS011;11490;42.726;23.268;2023-09-30T12:34:16;4.93;;;3.55;;
22646;SDS011;11490;42.726;23.268;2023-09-30T12:36:42;5.32;;;3.03;;
22646;SDS011;11490;42.726;23.268;2023-09-30T12:39:08;9.45;;;2.70;;
22646;SDS011;11490;42.726;23.268;2023-09-30T12:44:04;5.80;;;3.33;;
22646;SDS011;11490;42.726;23.268;2023-09-30T12:46:30;5.45;;;3.38;;
22646;SDS011;11490;42.726;23.268;2023-09-30T12:48:56;4.93;;;3.30;;
22646;SDS011;11490;42.726;23.268;2023-09-30T12:51:21;4.90;;;2.67;;
22646;SDS011;11490;42.726;23.268;2023-09-30T12:53:46;5.65;;;3.08;;
22646;SDS011;11490;42.726;23.268;2023-09-30T12:56:12;5.95;;;3.08;;
22646;SDS011;11490;42.726;23.268;2023-09-30T12:58:37;5.68;;;4.00;;
22646;SDS011;11490;42.726;23.268;2023-09-30T13:01:03;12.60;;;7.00;;
22646;SDS011;11490;42.726;23.268;2023-09-30T13:03:31;11.40;;;4.88;;
22646;SDS011;11490;42.726;23.268;2023-09-30T13:05:56;7.50;;;5.07;;
22646;SDS011;11490;42.726;23.268;2023-09-30T13:08:22;10.93;;;5.75;;
22646;SDS011;11490;42.726;23.268;2023-09-30T13:10:47;7.70;;;3.47;;
22646;SDS011;11490;42.726;23.268;2023-09-30T13:13:15;5.78;;;3.20;;
22646;SDS011;11490;42.726;23.268;2023-09-30T13:15:40;8.18;;;3.45;;
22646;SDS011;11490;42.726;23.268;2023-09-30T13:18:06;9.65;;;3.92;;
22646;SDS011;11490;42.726;23.268;2023-09-30T13:20:32;5.60;;;3.70;;
22646;SDS011;11490;42.726;23.268;2023-09-30T13:22:57;7.00;;;3.47;;
22646;SDS011;11490;42.726;23.268;2023-09-30T13:25:22;6.05;;;3.30;;
22646;SDS011;11490;42.726;23.268;2023-09-30T13:27:48;6.78;;;3.53;;
22646;SDS011;11490;42.726;23.268;2023-09-30T13:30:13;5.82;;;3.38;;
22646;SDS011;11490;42.726;23.268;2023-09-30T13:32:39;5.00;;;3.08;;
22646;SDS011;11490;42.726;23.268;2023-09-30T13:35:05;5.40;;;3.47;;
22646;SDS011;11490;42.726;23.268;2023-09-30T13:37:31;6.65;;;2.90;;
22646;SDS011;11490;42.726;23.268;2023-09-30T13:40:01;5.75;;;3.20;;
22646;SDS011;11490;42.726;23.268;2023-09-30T13:42:29;6.13;;;3.25;;
22646;SDS011;11490;42.726;23.268;2023-09-30T13:44:57;6.68;;;3.33;;
22646;SDS011;11490;42.726;23.268;2023-09-30T13:47:23;7.25;;;3.60;;
22646;SDS011;11490;42.726;23.268;2023-09-30T13:49:50;10.05;;;4.05;;
22646;SDS011;11490;42.726;23.268;2023-09-30T13:52:15;5.60;;;3.10;;
22646;SDS011;11490;42.726;23.268;2023-09-30T13:54:41;6.22;;;2.90;;
22646;SDS011;11490;42.726;23.268;2023-09-30T13:57:06;4.93;;;3.53;;
22646;SDS011;11490;42.726;23.268;2023-09-30T13:59:34;5.10;;;2.80;;
22646;SDS011;11490;42.726;23.268;2023-09-30T14:02:00;8.68;;;3.40;;
22646;SDS011;11490;42.726;23.268;2023-09-30T14:04:25;11.80;;;7.18;;
22646;SDS011;11490;42.726;23.268;2023-09-30T14:06:51;7.97;;;3.05;;
22646;SDS011;11490;42.726;23.268;2023-09-30T14:09:16;9.80;;;3.92;;
22646;SDS011;11490;42.726;23.268;2023-09-30T14:11:43;5.22;;;3.80;;
22646;SDS011;11490;42.726;23.268;2023-09-30T14:14:09;3.97;;;3.15;;
22646;SDS011;11490;42.726;23.268;2023-09-30T14:16:37;5.80;;;3.45;;
22646;SDS011;11490;42.726;23.268;2023-09-30T14:19:03;6.00;;;3.25;;
22646;SDS011;11490;42.726;23.268;2023-09-30T14:21:28;6.18;;;3.25;;
22646;SDS011;11490;42.726;23.268;2023-09-30T14:23:54;13.10;;;3.28;;
22646;SDS011;11490;42.726;23.268;2023-09-30T14:26:19;6.35;;;2.70;;
22646;SDS011;11490;42.726;23.268;2023-09-30T14:28:44;6.85;;;3.08;;
22646;SDS011;11490;42.726;23.268;2023-09-30T14:31:10;8.63;;;3.22;;
22646;SDS011;11490;42.726;23.268;2023-09-30T14:33:36;6.97;;;2.72;;
22646;SDS011;11490;42.726;23.268;2023-09-30T14:36:02;6.88;;;3.63;;
22646;SDS011;11490;42.726;23.268;2023-09-30T14:38:30;4.43;;;2.83;;
22646;SDS011;11490;42.726;23.268;2023-09-30T14:40:56;7.25;;;3.25;;
22646;SDS011;11490;42.726;23.268;2023-09-30T14:43:22;5.03;;;3.42;;
22646;SDS011;11490;42.726;23.268;2023-09-30T14:45:47;6.57;;;3.50;;
22646;SDS011;11490;42.726;23.268;2023-09-30T14:48:12;10.93;;;3.38;;
22646;SDS011;11490;42.726;23.268;2023-09-30T14:50:47;6.07;;;3.10;;
22646;SDS011;11490;42.726;23.268;2023-09-30T14:53:13;8.15;;;3.10;;
22646;SDS011;11490;42.726;23.268;2023-09-30T14:55:39;8.82;;;3.35;;
22646;SDS011;11490;42.726;23.268;2023-09-30T14:58:05;5.78;;;3.40;;
22646;SDS011;11490;42.726;23.268;2023-09-30T15:00:31;4.22;;;2.58;;
22646;SDS011;11490;42.726;23.268;2023-09-30T15:02:56;5.35;;;3.53;;
22646;SDS011;11490;42.726;23.268;2023-09-30T15:05:22;5.15;;;3.42;;
22646;SDS011;11490;42.726;23.268;2023-09-30T15:07:49;6.72;;;4.00;;